Time;durP1;ratioP1;P1;durP2;ratioP2;P2;SDS_P1;SDS_P2;PMS_P1;PMS_P2;Temp;Humidity;BMP_temperature;BMP_pressure;BME280_temperature;BME280_humidity;BME280_pressure;Samples;Min_cycle;Max_cycle;Signal;HPM_P1;HPM_P2
2023/04/28 00:02:47;;;;;;;;;;;16.90;56.40;;;;;;10210153;28;92548;-70
2023/04/28 00:07:49;;;;;;;;;;;16.90;56.40;;;;;;10210574;28;94441;-70
2023/04/28 00:12:51;;;;;;;;;;;16.90;56.30;;;;;;10211096;28;93292;-70
2023/04/28 00:17:54;;;;;;;;;;;16.90;56.20;;;;;;10226012;28;93511;-71
2023/04/28 00:22:56;;;;;;;;;;;16.90;56.30;;;;;;10192653;28;93371;-70
2023/04/28 00:27:58;;;;;;;;;;;16.90;56.10;;;;;;10191059;28;95737;-70
2023/04/28 00:32:59;;;;;;;;;;;16.80;56.10;;;;;;10192630;28;93243;-70
2023/04/28 00:38:01;;;;;;;;;;;16.80;56.10;;;;;;10209813;28;94438;-70
2023/04/28 00:43:03;;;;;;;;;;;16.80;56.20;;;;;;10209380;28;93360;-70
2023/04/28 00:48:06;;;;;;;;;;;16.80;56.10;;;;;;10191416;28;94057;-71
2023/04/28 00:53:07;;;;;;;;;;;16.80;56.10;;;;;;10211126;28;93364;-71
2023/04/28 00:58:09;;;;;;;;;;;16.80;57.10;;;;;;10209690;28;94461;-71
2023/04/28 01:03:11;;;;;;;;;;;16.80;56.00;;;;;;10210998;28;95774;-71
2023/04/28 01:08:13;;;;;;;;;;;16.80;56.00;;;;;;10209340;28;92844;-71
2023/04/28 01:13:14;;;;;;;;;;;16.70;56.00;;;;;;10209552;28;93437;-70
2023/04/28 01:18:16;;;;;;;;;;;16.70;56.00;;;;;;10206958;28;95730;-70
2023/04/28 01:23:18;;;;;;;;;;;16.70;56.00;;;;;;10190705;28;94061;-70
2023/04/28 01:28:20;;;;;;;;;;;16.70;55.90;;;;;;10208878;28;93502;-70
2023/04/28 01:33:21;;;;;;;;;;;16.70;55.90;;;;;;10208934;28;92941;-70
2023/04/28 01:38:23;;;;;;;;;;;16.70;55.90;;;;;;10208821;28;94412;-70
2023/04/28 01:43:25;;;;;;;;;;;16.70;56.10;;;;;;10190507;28;92803;-70
2023/04/28 01:48:27;;;;;;;;;;;16.70;55.90;;;;;;10208428;28;93239;-70
2023/04/28 01:53:29;;;;;;;;;;;16.70;55.90;;;;;;10192738;28;93497;-70
2023/04/28 01:58:31;;;;;;;;;;;16.70;55.90;;;;;;10190899;28;94805;-70
2023/04/28 02:03:32;;;;;;;;;;;16.70;55.90;;;;;;10208739;28;94529;-70
2023/04/28 02:08:34;;;;;;;;;;;16.70;55.90;;;;;;10205339;28;95927;-69
2023/04/28 02:13:36;;;;;;;;;;;16.70;55.90;;;;;;10206877;28;94531;-70
2023/04/28 02:18:38;;;;;;;;;;;16.70;55.80;;;;;;10207820;28;94475;-69
2023/04/28 02:23:40;;;;;;;;;;;16.70;55.70;;;;;;10207315;28;94972;-70
2023/04/28 02:28:41;;;;;;;;;;;16.70;55.80;;;;;;10206998;28;95093;-70
2023/04/28 02:33:43;;;;;;;;;;;16.70;55.80;;;;;;10211837;28;93641;-70
2023/04/28 02:38:45;;;;;;;;;;;16.70;55.70;;;;;;10214304;28;94521;-70
2023/04/28 02:43:46;;;;;;;;;;;16.70;55.70;;;;;;10213564;28;92425;-70
2023/04/28 02:48:48;;;;;;;;;;;16.70;55.60;;;;;;10213073;28;94063;-70
2023/04/28 02:53:50;;;;;;;;;;;16.70;55.70;;;;;;10212935;28;93861;-70
2023/04/28 02:58:51;;;;;;;;;;;16.70;55.70;;;;;;10210196;28;95607;-70
2023/04/28 03:03:53;;;;;;;;;;;16.70;55.60;;;;;;10213182;28;93151;-70
2023/04/28 03:08:56;;;;;;;;;;;16.60;55.60;;;;;;10195559;28;94680;-69
2023/04/28 03:13:57;;;;;;;;;;;16.60;55.60;;;;;;10212763;28;94304;-69
2023/04/28 03:18:59;;;;;;;;;;;16.60;55.70;;;;;;10213087;28;95146;-70
2023/04/28 03:24:01;;;;;;;;;;;16.60;55.70;;;;;;10212783;28;93238;-70
2023/04/28 03:29:06;;;;;;;;;;;16.60;55.70;;;;;;10212233;28;94521;-70
2023/04/28 03:34:08;;;;;;;;;;;16.60;55.70;;;;;;10195776;28;92551;-70
2023/04/28 03:39:10;;;;;;;;;;;16.60;55.70;;;;;;10212468;28;94569;-70
2023/04/28 03:44:11;;;;;;;;;;;16.60;55.70;;;;;;10210813;28;93776;-70
2023/04/28 05:08:05;;;;;;;;;;;16.60;55.20;;;;;;10168437;28;93295;-64
2023/04/28 05:13:07;;;;;;;;;;;16.70;55.00;;;;;;10169122;28;94693;-64
2023/04/28 05:18:10;;;;;;;;;;;16.70;54.90;;;;;;10169245;28;94413;-64
2023/04/28 05:23:11;;;;;;;;;;;16.80;54.80;;;;;;10151225;28;93503;-65
2023/04/28 05:28:13;;;;;;;;;;;16.90;54.80;;;;;;10168157;28;93695;-65
2023/04/28 05:33:15;;;;;;;;;;;16.80;54.70;;;;;;10168264;28;93298;-64
2023/04/28 05:38:17;;;;;;;;;;;16.80;54.60;;;;;;10168356;28;93493;-64
2023/04/28 05:43:18;;;;;;;;;;;16.80;54.60;;;;;;10149748;28;93625;-64
2023/04/28 05:48:20;;;;;;;;;;;16.80;54.70;;;;;;10161326;28;96468;-64
2023/04/28 05:53:22;;;;;;;;;;;16.80;54.70;;;;;;10143861;28;94258;-64
2023/04/28 05:58:23;;;;;;;;;;;16.80;54.70;;;;;;10168251;28;93717;-64
2023/04/28 06:03:25;;;;;;;;;;;16.80;54.80;;;;;;10166499;28;93973;-64
2023/04/28 06:08:27;;;;;;;;;;;16.80;54.80;;;;;;10165760;28;93427;-64
2023/04/28 06:13:29;;;;;;;;;;;16.80;54.80;;;;;;10167499;28;93408;-64
2023/04/28 06:18:31;;;;;;;;;;;16.80;54.90;;;;;;10182321;28;94414;-64
2023/04/28 06:23:34;;;;;;;;;;;16.70;54.80;;;;;;10168067;28;93430;-64
2023/04/28 06:28:36;;;;;;;;;;;16.70;54.80;;;;;;10167000;28;93482;-64
2023/04/28 06:33:38;;;;;;;;;;;16.80;54.90;;;;;;10167194;28;94538;-63
2023/04/28 06:38:41;;;;;;;;;;;16.70;54.80;;;;;;10164596;28;96407;-64
2023/04/28 06:43:43;;;;;;;;;;;16.70;54.80;;;;;;10166255;28;93811;-64
2023/04/28 06:48:45;;;;;;;;;;;16.70;54.90;;;;;;10167146;28;94599;-64
2023/04/28 06:53:50;;;;;;;;;;;16.70;55.00;;;;;;10167004;28;94544;-64
2023/04/28 06:58:53;;;;;;;;;;;16.60;55.00;;;;;;10166126;28;93178;-64
2023/04/28 07:03:55;;;;;;;;;;;16.60;55.10;;;;;;10166921;28;94525;-64
2023/04/28 07:08:58;;;;;;;;;;;16.60;55.20;;;;;;10165801;28;92789;-64
2023/04/28 07:14:00;;;;;;;;;;;16.60;55.30;;;;;;10149651;28;92628;-63
2023/04/28 07:19:01;;;;;;;;;;;16.70;55.30;;;;;;10152207;28;94622;-64
2023/04/28 07:24:03;;;;;;;;;;;16.70;55.20;;;;;;10172916;28;96047;-64
2023/04/28 07:29:07;;;;;;;;;;;16.70;55.20;;;;;;10152470;28;95840;-63
2023/04/28 07:34:09;;;;;;;;;;;16.70;55.20;;;;;;10154904;28;94470;-64
2023/04/28 07:39:11;;;;;;;;;;;16.70;55.30;;;;;;10171807;28;94427;-65
2023/04/28 07:44:13;;;;;;;;;;;16.70;55.40;;;;;;10172361;28;94089;-65
2023/04/28 07:49:14;;;;;;;;;;;16.70;55.30;;;;;;10154217;28;93665;-64
2023/04/28 07:54:16;;;;;;;;;;;16.70;55.30;;;;;;10154405;28;94030;-64
2023/04/28 07:59:18;;;;;;;;;;;16.70;55.30;;;;;;10171394;28;93265;-65
2023/04/28 08:04:20;;;;;;;;;;;16.70;55.40;;;;;;10171601;28;92928;-64
2023/04/28 08:09:23;;;;;;;;;;;16.70;55.60;;;;;;10171544;28;94082;-65
2023/04/28 08:14:25;;;;;;;;;;;16.70;55.50;;;;;;10171115;28;94640;-65
2023/04/28 08:19:27;;;;;;;;;;;16.70;55.60;;;;;;10169337;28;96863;-65
2023/04/28 08:24:29;;;;;;;;;;;16.70;55.70;;;;;;10153911;28;93309;-65
2023/04/28 08:29:31;;;;;;;;;;;16.60;55.70;;;;;;10153331;28;93465;-64
2023/04/28 08:34:33;;;;;;;;;;;16.60;55.80;;;;;;10171144;28;93659;-65
2023/04/28 08:39:35;;;;;;;;;;;16.60;55.80;;;;;;10170572;28;93437;-65
2023/04/28 08:44:38;;;;;;;;;;;16.60;55.90;;;;;;10169940;28;94328;-65
2023/04/28 08:49:40;;;;;;;;;;;16.60;55.90;;;;;;10169528;28;93263;-65
2023/04/28 08:54:43;;;;;;;;;;;16.60;56.00;;;;;;10169961;28;93383;-62
2023/04/28 08:59:44;;;;;;;;;;;16.60;56.20;;;;;;10169623;28;93481;-64
2023/04/28 09:04:46;;;;;;;;;;;16.70;56.20;;;;;;10152542;28;94295;-64
2023/04/28 09:09:48;;;;;;;;;;;16.70;56.20;;;;;;10167732;28;97406;-62
2023/04/28 09:14:56;;;;;;;;;;;16.80;56.20;;;;;;10168906;28;92539;-64
2023/04/28 09:19:58;;;;;;;;;;;16.80;57.30;;;;;;10169462;28;94556;-64
2023/04/28 09:25:09;;;;;;;;;;;16.90;57.60;;;;;;10184457;28;93721;-64
2023/04/28 09:30:11;;;;;;;;;;;16.90;57.50;;;;;;10169019;28;94318;-64
2023/04/28 09:35:13;;;;;;;;;;;16.90;57.80;;;;;;10168837;28;92935;-65
2023/04/28 09:40:15;;;;;;;;;;;17.00;57.70;;;;;;10167234;28;93468;-65
2023/04/28 09:45:17;;;;;;;;;;;17.20;57.90;;;;;;10169166;28;92370;-65
2023/04/28 09:50:19;;;;;;;;;;;17.40;57.60;;;;;;10168720;28;93523;-65
2023/04/28 09:55:21;;;;;;;;;;;17.70;57.40;;;;;;10168966;28;94376;-64
2023/04/28 10:00:24;;;;;;;;;;;17.90;57.00;;;;;;10148299;28;95872;-66
2023/04/28 10:05:25;;;;;;;;;;;18.00;57.20;;;;;;10167542;28;92629;-66
2023/04/28 10:10:28;;;;;;;;;;;18.10;58.50;;;;;;10168349;28;94235;-66
2023/04/28 10:15:31;;;;;;;;;;;18.10;56.90;;;;;;10168513;28;93230;-65
2023/04/28 10:20:33;;;;;;;;;;;18.00;57.00;;;;;;10167358;28;93633;-65
2023/04/28 10:25:36;;;;;;;;;;;18.00;57.20;;;;;;10150063;28;94155;-65
2023/04/28 10:30:37;;;;;;;;;;;18.00;57.30;;;;;;10166722;28;93526;-66
2023/04/28 10:35:46;;;;;;;;;;;17.90;57.30;;;;;;10149788;28;92649;-63
2023/04/28 10:40:48;;;;;;;;;;;17.80;57.90;;;;;;10164770;28;94503;-64
2023/04/28 10:45:53;;;;;;;;;;;17.80;57.80;;;;;;10167318;28;94547;-64
2023/04/28 10:51:08;;;;;;;;;;;17.70;57.80;;;;;;10162684;28;95981;-64
2023/04/28 10:56:20;;;;;;;;;;;17.60;57.90;;;;;;10156400;28;94437;-64
2023/04/28 11:01:27;;;;;;;;;;;17.50;58.10;;;;;;10173129;28;94677;-64
2023/04/28 11:06:31;;;;;;;;;;;17.50;58.30;;;;;;10173071;28;93589;-64
2023/04/28 11:11:35;;;;;;;;;;;17.50;58.40;;;;;;10172247;28;115208;-65
2023/04/28 11:16:48;;;;;;;;;;;17.40;58.50;;;;;;10172686;28;93492;-64
2023/04/28 11:21:51;;;;;;;;;;;17.40;58.60;;;;;;10155295;28;94906;-64
2023/04/28 11:26:53;;;;;;;;;;;17.40;58.50;;;;;;10172677;28;93348;-64
2023/04/28 11:31:55;;;;;;;;;;;17.40;58.50;;;;;;10155473;28;94501;-64
2023/04/28 11:36:57;;;;;;;;;;;17.40;58.60;;;;;;10171208;28;94715;-64
2023/04/28 11:42:01;;;;;;;;;;;17.40;58.60;;;;;;10169074;28;96872;-64
2023/04/28 11:47:03;;;;;;;;;;;17.40;58.70;;;;;;10172023;28;94582;-64
2023/04/28 11:52:06;;;;;;;;;;;17.50;58.90;;;;;;10170930;28;93424;-64
2023/04/28 11:57:18;;;;;;;;;;;17.50;58.70;;;;;;10169840;28;94643;-64
2023/04/28 12:02:27;;;;;;;;;;;17.50;58.80;;;;;;10171437;28;94715;-65
2023/04/28 12:07:38;;;;;;;;;;;17.50;58.90;;;;;;10170710;28;93397;-64
2023/04/28 12:12:41;;;;;;;;;;;17.50;58.90;;;;;;10171260;28;93958;-64
2023/04/28 12:17:52;;;;;;;;;;;17.50;59.00;;;;;;10169049;28;92944;-64
2023/04/28 12:22:54;;;;;;;;;;;17.60;59.00;;;;;;10167158;28;93544;-64
2023/04/28 12:28:03;;;;;;;;;;;17.60;59.00;;;;;;10149693;28;94551;-64
2023/04/28 12:33:05;;;;;;;;;;;17.60;59.00;;;;;;10150127;28;97242;-64
2023/04/28 12:38:10;;;;;;;;;;;17.60;59.00;;;;;;10170135;28;94489;-64
2023/04/28 12:43:12;;;;;;;;;;;17.50;59.10;;;;;;10170259;28;94489;-65
2023/04/28 12:48:14;;;;;;;;;;;17.50;59.20;;;;;;10168747;28;93453;-64
2023/04/28 12:53:15;;;;;;;;;;;17.60;59.30;;;;;;10170049;28;94577;-64
2023/04/28 12:58:17;;;;;;;;;;;17.60;59.10;;;;;;10169466;28;93624;-64
2023/04/28 13:03:20;;;;;;;;;;;17.70;59.10;;;;;;10168982;28;93713;-65
2023/04/28 13:08:22;;;;;;;;;;;17.70;59.10;;;;;;10169419;28;93158;-63
2023/04/28 13:13:23;;;;;;;;;;;17.60;59.10;;;;;;10151937;28;93474;-65
2023/04/28 13:18:25;;;;;;;;;;;17.60;59.20;;;;;;10167659;28;93289;-64
2023/04/28 13:23:27;;;;;;;;;;;17.60;59.30;;;;;;10166019;28;96299;-64
2023/04/28 13:28:29;;;;;;;;;;;17.70;59.30;;;;;;10168628;28;94255;-64
2023/04/28 13:33:30;;;;;;;;;;;17.70;59.10;;;;;;10168902;28;95015;-64
2023/04/28 13:38:32;;;;;;;;;;;17.70;59.10;;;;;;10167296;28;93554;-65
2023/04/28 13:43:35;;;;;;;;;;;17.70;59.20;;;;;;10162954;28;93399;-64
2023/04/28 13:48:37;;;;;;;;;;;17.70;59.20;;;;;;10130358;28;93999;-65
2023/04/28 13:53:38;;;;;;;;;;;17.70;59.90;;;;;;10168414;28;93164;-65
2023/04/28 13:58:40;;;;;;;;;;;17.70;59.70;;;;;;10169602;28;92932;-64
2023/04/28 14:03:43;;;;;;;;;;;17.70;60.20;;;;;;10168770;28;93874;-64
2023/04/28 14:08:45;;;;;;;;;;;17.80;59.90;;;;;;10168484;28;94410;-65
2023/04/28 14:13:47;;;;;;;;;;;17.80;59.90;;;;;;10180201;28;95571;-64
2023/04/28 14:18:49;;;;;;;;;;;17.80;59.90;;;;;;10168136;28;94486;-65
2023/04/28 14:23:51;;;;;;;;;;;17.80;60.00;;;;;;10167320;28;93279;-65
2023/04/28 14:28:52;;;;;;;;;;;17.70;60.10;;;;;;10166705;28;93361;-64
2023/04/28 14:33:54;;;;;;;;;;;17.70;60.30;;;;;;10167300;28;94311;-64
2023/04/28 14:38:56;;;;;;;;;;;17.70;60.50;;;;;;10167045;28;94498;-64
2023/04/28 14:43:57;;;;;;;;;;;17.70;60.70;;;;;;10167369;28;93679;-64
2023/04/28 14:49:01;;;;;;;;;;;17.70;60.80;;;;;;10166186;28;92670;-64
2023/04/28 14:54:03;;;;;;;;;;;17.60;61.00;;;;;;10166042;28;93518;-64
2023/04/28 14:59:05;;;;;;;;;;;17.60;61.10;;;;;;10180429;28;92711;-64
2023/04/28 15:04:08;;;;;;;;;;;17.60;61.20;;;;;;10163384;28;95840;-64
2023/04/28 15:09:10;;;;;;;;;;;17.60;61.40;;;;;;10166070;28;94175;-64
2023/04/28 15:14:12;;;;;;;;;;;17.60;62.20;;;;;;10165523;28;92863;-64
2023/04/28 15:19:14;;;;;;;;;;;17.60;61.80;;;;;;10165243;28;93548;-65
2023/04/28 15:24:17;;;;;;;;;;;17.50;61.70;;;;;;10164851;28;93586;-64
2023/04/28 15:29:19;;;;;;;;;;;17.50;62.20;;;;;;10165062;28;93388;-64
2023/04/28 15:34:21;;;;;;;;;;;17.50;61.90;;;;;;10165346;28;94117;-65
2023/04/28 15:39:24;;;;;;;;;;;17.50;61.70;;;;;;10167908;28;92999;-65
2023/04/28 15:44:26;;;;;;;;;;;17.60;61.80;;;;;;10171238;28;93451;-65
2023/04/28 15:49:31;;;;;;;;;;;17.70;61.90;;;;;;10172950;28;94530;-63
2023/04/28 15:54:33;;;;;;;;;;;17.70;62.50;;;;;;10169050;28;96834;-65
2023/04/28 15:59:35;;;;;;;;;;;17.80;63.00;;;;;;10138667;28;92932;-63
2023/04/28 16:04:37;;;;;;;;;;;17.90;62.90;;;;;;10186143;28;94584;-65
2023/04/28 16:09:39;;;;;;;;;;;18.10;62.40;;;;;;10171495;28;93115;-65
2023/04/28 16:14:41;;;;;;;;;;;18.30;63.90;;;;;;10170941;28;92935;-65
2023/04/28 16:19:43;;;;;;;;;;;18.50;65.80;;;;;;10154772;28;93217;-64
2023/04/28 16:24:45;;;;;;;;;;;19.20;63.20;;;;;;10170340;28;94542;-63
2023/04/28 16:29:47;;;;;;;;;;;19.20;62.30;;;;;;10172103;28;93512;-63
2023/04/28 16:34:49;;;;;;;;;;;19.10;62.20;;;;;;10170474;28;94275;-63
2023/04/28 16:39:51;;;;;;;;;;;19.00;62.40;;;;;;10169749;28;94230;-63
2023/04/28 16:44:53;;;;;;;;;;;18.90;62.60;;;;;;10167899;28;96815;-63
2023/04/28 16:49:55;;;;;;;;;;;18.80;62.80;;;;;;10169072;28;93649;-63
2023/04/28 16:54:57;;;;;;;;;;;18.70;63.00;;;;;;10184246;28;93404;-63
2023/04/28 16:59:59;;;;;;;;;;;18.60;63.20;;;;;;10169911;28;93424;-63
2023/04/28 17:05:01;;;;;;;;;;;18.50;63.50;;;;;;10152038;28;94494;-63
2023/04/28 17:10:03;;;;;;;;;;;18.50;63.60;;;;;;10169019;28;93732;-64
2023/04/28 17:15:06;;;;;;;;;;;18.40;63.70;;;;;;10151931;28;93430;-63
2023/04/28 17:20:08;;;;;;;;;;;18.40;63.90;;;;;;10152171;28;92771;-62
2023/04/28 17:25:10;;;;;;;;;;;18.30;64.00;;;;;;10168077;28;93556;-63
2023/04/28 17:30:13;;;;;;;;;;;18.30;64.10;;;;;;10168784;28;93493;-65
2023/04/28 17:35:14;;;;;;;;;;;18.30;64.20;;;;;;10165716;28;96185;-64
2023/04/28 17:40:17;;;;;;;;;;;18.30;64.20;;;;;;10167723;28;94287;-64
2023/04/28 17:45:19;;;;;;;;;;;18.30;64.30;;;;;;10167599;28;94768;-64
2023/04/28 17:50:21;;;;;;;;;;;18.20;64.20;;;;;;10166173;28;94530;-64
2023/04/28 17:55:23;;;;;;;;;;;18.20;64.20;;;;;;10167642;28;94439;-64
2023/04/28 18:00:25;;;;;;;;;;;18.20;64.20;;;;;;10167907;28;93336;-63
2023/04/28 18:05:28;;;;;;;;;;;18.20;64.00;;;;;;10166359;28;94272;-64
2023/04/28 18:10:33;;;;;;;;;;;18.20;64.00;;;;;;10168434;28;94570;-64
2023/04/28 18:15:35;;;;;;;;;;;18.20;64.00;;;;;;10167117;28;94501;-64
2023/04/28 18:20:37;;;;;;;;;;;18.10;63.90;;;;;;10167025;28;94645;-64
2023/04/28 18:25:38;;;;;;;;;;;18.10;63.80;;;;;;10164202;28;95336;-64
2023/04/28 18:35:42;;;;;;;;;;;18.10;66.00;;;;;;10165758;28;93474;-64
2023/04/28 18:40:43;;;;;;;;;;;18.10;65.50;;;;;;10166814;28;93040;-65
2023/04/28 18:45:45;;;;;;;;;;;18.10;64.60;;;;;;10166606;28;94545;-64
2023/04/28 18:50:47;;;;;;;;;;;18.20;64.30;;;;;;10148170;28;93611;-65
2023/04/28 18:55:51;;;;;;;;;;;18.10;64.30;;;;;;10166564;28;92830;-64
2023/04/28 19:00:53;;;;;;;;;;;18.10;64.30;;;;;;10167411;28;93846;-64
2023/04/28 19:05:55;;;;;;;;;;;18.10;64.40;;;;;;10166032;28;94462;-64
2023/04/28 19:10:57;;;;;;;;;;;18.10;64.40;;;;;;10148415;28;93144;-64
2023/04/28 19:15:59;;;;;;;;;;;18.10;64.60;;;;;;10183582;28;96063;-65
2023/04/28 19:21:02;;;;;;;;;;;18.10;64.60;;;;;;10155062;28;93816;-64
2023/04/28 19:26:04;;;;;;;;;;;18.00;64.70;;;;;;10172557;28;92898;-65
2023/04/28 19:31:06;;;;;;;;;;;18.00;64.70;;;;;;10172115;28;94052;-64
2023/04/28 19:36:08;;;;;;;;;;;18.00;64.80;;;;;;10172133;28;95126;-64
2023/04/28 19:41:10;;;;;;;;;;;18.00;65.00;;;;;;10171865;28;92472;-64
2023/04/28 19:46:12;;;;;;;;;;;18.00;65.00;;;;;;10172128;28;94458;-65
2023/04/28 19:51:15;;;;;;;;;;;17.90;65.10;;;;;;10171891;28;93769;-64
2023/04/28 19:56:17;;;;;;;;;;;17.90;65.20;;;;;;10171539;28;93434;-64
2023/04/28 20:01:19;;;;;;;;;;;17.90;65.30;;;;;;10153423;28;93470;-64
2023/04/28 20:06:21;;;;;;;;;;;17.90;65.10;;;;;;10168552;28;97149;-64
2023/04/28 20:11:23;;;;;;;;;;;17.90;65.10;;;;;;10171667;28;93260;-63
2023/04/28 20:16:25;;;;;;;;;;;17.80;65.00;;;;;;10171181;28;93282;-64
2023/04/28 20:21:27;;;;;;;;;;;17.80;65.10;;;;;;10170324;28;93658;-64
2023/04/28 20:26:30;;;;;;;;;;;17.80;65.10;;;;;;10169513;28;93460;-64
2023/04/28 20:31:32;;;;;;;;;;;17.80;65.50;;;;;;10170278;28;93745;-64
2023/04/28 20:36:34;;;;;;;;;;;17.90;65.60;;;;;;10169345;28;93523;-64
2023/04/28 20:41:36;;;;;;;;;;;17.90;65.90;;;;;;10185916;28;92915;-64
2023/04/28 20:46:38;;;;;;;;;;;18.00;65.80;;;;;;10170321;28;93798;-62
2023/04/28 20:51:44;;;;;;;;;;;18.00;65.80;;;;;;10151902;28;93501;-64
2023/04/28 20:56:45;;;;;;;;;;;18.00;65.80;;;;;;10166993;28;95954;-63
2023/04/28 21:01:47;;;;;;;;;;;18.00;65.80;;;;;;10169977;28;94909;-64
2023/04/28 21:06:50;;;;;;;;;;;18.00;65.80;;;;;;10169263;28;93613;-64
2023/04/28 21:11:52;;;;;;;;;;;18.00;65.80;;;;;;10182861;28;93794;-64
2023/04/28 21:16:53;;;;;;;;;;;18.00;65.80;;;;;;10169817;28;93982;-64
2023/04/28 21:21:56;;;;;;;;;;;18.00;65.80;;;;;;10151478;28;93698;-64
2023/04/28 21:27:01;;;;;;;;;;;18.00;65.90;;;;;;10167915;28;94533;-64
2023/04/28 21:32:03;;;;;;;;;;;18.00;65.90;;;;;;10183663;28;93072;-65
2023/04/28 21:37:05;;;;;;;;;;;18.00;65.70;;;;;;10166794;28;93332;-64
2023/04/28 21:42:07;;;;;;;;;;;17.90;65.30;;;;;;10168185;28;94489;-64
2023/04/28 21:47:09;;;;;;;;;;;17.80;65.20;;;;;;10164236;28;95836;-63
2023/04/28 21:52:11;;;;;;;;;;;17.80;65.20;;;;;;10151001;28;93765;-63
2023/04/28 21:57:14;;;;;;;;;;;17.80;65.00;;;;;;10168040;28;93305;-63
2023/04/28 22:02:16;;;;;;;;;;;17.70;65.00;;;;;;10167232;28;93532;-63
2023/04/28 22:07:18;;;;;;;;;;;17.70;65.00;;;;;;10168350;28;94504;-63
2023/04/28 22:12:19;;;;;;;;;;;17.60;64.90;;;;;;10166660;28;93436;-63
2023/04/28 22:17:21;;;;;;;;;;;17.60;65.10;;;;;;10149360;28;92808;-63
2023/04/28 22:22:23;;;;;;;;;;;17.60;65.00;;;;;;10150486;28;93687;-63
2023/04/28 22:27:25;;;;;;;;;;;17.50;64.90;;;;;;10167534;28;94426;-63
2023/04/28 22:32:28;;;;;;;;;;;17.50;64.80;;;;;;10165881;28;93514;-64
2023/04/28 22:37:30;;;;;;;;;;;17.50;64.80;;;;;;10165013;28;95823;-64
2023/04/28 22:42:35;;;;;;;;;;;17.50;64.80;;;;;;10166967;28;93678;-63
2023/04/28 22:47:38;;;;;;;;;;;17.40;64.60;;;;;;10166443;28;94357;-64
2023/04/28 22:52:40;;;;;;;;;;;17.40;64.60;;;;;;10156176;28;93785;-64
2023/04/28 22:57:42;;;;;;;;;;;17.40;64.60;;;;;;10172910;28;93359;-64
2023/04/28 23:02:44;;;;;;;;;;;17.40;64.50;;;;;;10172811;28;93412;-64
2023/04/28 23:07:46;;;;;;;;;;;17.40;64.40;;;;;;10173316;28;94018;-64
2023/04/28 23:12:47;;;;;;;;;;;17.30;64.40;;;;;;10173561;28;93822;-64
2023/04/28 23:17:49;;;;;;;;;;;17.30;64.30;;;;;;10172469;28;93442;-64
2023/04/28 23:22:51;;;;;;;;;;;17.30;64.20;;;;;;10172805;28;93592;-64
2023/04/28 23:27:53;;;;;;;;;;;17.30;64.20;;;;;;10170485;28;96717;-62
2023/04/28 23:32:55;;;;;;;;;;;17.30;64.20;;;;;;10172767;28;93249;-63
2023/04/28 23:37:57;;;;;;;;;;;17.30;64.10;;;;;;10171187;28;93792;-63
2023/04/28 23:42:58;;;;;;;;;;;17.30;64.00;;;;;;10187185;28;93524;-63
2023/04/28 23:48:00;;;;;;;;;;;17.30;64.00;;;;;;10185920;28;92956;-63
2023/04/28 23:53:04;;;;;;;;;;;17.20;63.90;;;;;;10171677;28;94552;-63
2023/04/28 23:58:06;;;;;;;;;;;17.20;63.80;;;;;;10171082;28;94533;-63
